Terminal Aerodrome Forecast
Issued by NWS

Home | Current Version | Previous Version | Text Only | Print | Product List | Glossary On
Versions: 1 2 3 4 5 6 7 8 9 10 11 12 13 14 15
000
FTUS45 KGGW 181700
TAFSDY
TAF
KSDY 181740Z 1818/1918 12015KT P6SM BKN100
     FM182200 22012KT P6SM -SHRA BKN050
     FM190200 25016KT P6SM SCT100
      AMD LTD TO CLD VIS AND WIND=

USA.gov is the U.S. government's official web portal to all federal, state and local government web resources and services.